Time;durP1;ratioP1;P1;durP2;ratioP2;P2;SDS_P1;SDS_P2;PMS_P1;PMS_P2;Temp;Humidity;BMP_temperature;BMP_pressure;BME280_temperature;BME280_humidity;BME280_pressure;Samples;Min_cycle;Max_cycle;Signal;HPM_P1;HPM_P2
2021/12/12 00:02:32;;;;;;;15.55;11.57;;;;;;;;;;5054264;28;20624;-72
2021/12/12 00:04:59;;;;;;;20.88;13.23;;;;;;;;;;5053995;28;20175;-71
2021/12/12 00:07:30;;;;;;;18.60;11.30;;;;;;;;;;5053916;28;20160;-69
2021/12/12 00:09:57;;;;;;;17.80;10.93;;;;;;;;;;5053751;28;20691;-69
2021/12/12 00:12:28;;;;;;;17.13;10.55;;;;;;;;;;5053790;28;20538;-74
2021/12/12 00:14:55;;;;;;;17.63;10.73;;;;;;;;;;5053843;28;20252;-75
2021/12/12 00:17:22;;;;;;;15.68;11.27;;;;;;;;;;5053786;28;20164;-70
2021/12/12 00:19:48;;;;;;;19.60;11.35;;;;;;;;;;5053838;28;20188;-68
2021/12/12 00:22:16;;;;;;;17.10;11.48;;;;;;;;;;5053732;28;20222;-73
2021/12/12 00:24:42;;;;;;;11.57;10.35;;;;;;;;;;5053681;28;20219;-74
2021/12/12 00:27:09;;;;;;;14.20;10.50;;;;;;;;;;5053695;28;20532;-73
2021/12/12 00:29:35;;;;;;;15.75;11.30;;;;;;;;;;5052298;28;20176;-72
2021/12/12 00:32:05;;;;;;;16.77;11.43;;;;;;;;;;5052254;28;20616;-68
2021/12/12 00:34:35;;;;;;;15.50;10.90;;;;;;;;;;5053518;28;20556;-74
2021/12/12 00:37:01;;;;;;;15.23;9.70;;;;;;;;;;5053530;28;20240;-71
2021/12/12 00:39:28;;;;;;;17.55;11.40;;;;;;;;;;5053504;28;20173;-71
2021/12/12 00:41:57;;;;;;;16.10;11.68;;;;;;;;;;5053198;28;20247;-69
2021/12/12 00:44:24;;;;;;;18.83;12.13;;;;;;;;;;5053453;28;20172;-74
2021/12/12 00:46:50;;;;;;;15.93;10.25;;;;;;;;;;5053372;28;20517;-74
2021/12/12 00:49:16;;;;;;;14.60;11.20;;;;;;;;;;5053413;28;20248;-71
2021/12/12 00:51:44;;;;;;;19.77;10.85;;;;;;;;;;5053313;28;20181;-71
2021/12/12 00:54:12;;;;;;;19.63;14.38;;;;;;;;;;5053258;28;20212;-73
2021/12/12 00:56:38;;;;;;;20.02;12.95;;;;;;;;;;5053353;28;20168;-74
2021/12/12 00:59:05;;;;;;;19.13;13.80;;;;;;;;;;5052000;28;20190;-69
2021/12/12 01:01:34;;;;;;;17.45;12.38;;;;;;;;;;5053495;28;20211;-72
2021/12/12 01:04:11;;;;;;;16.52;13.00;;;;;;;;;;5053287;28;20656;-73
2021/12/12 01:06:38;;;;;;;14.48;12.32;;;;;;;;;;5053119;28;20180;-68
2021/12/12 01:09:06;;;;;;;39.42;12.70;;;;;;;;;;5055322;28;20235;-67
2021/12/12 01:11:34;;;;;;;23.20;12.30;;;;;;;;;;5057379;28;20172;-71
2021/12/12 01:14:00;;;;;;;12.98;11.65;;;;;;;;;;5057251;28;20208;-70
2021/12/12 01:16:31;;;;;;;15.98;11.80;;;;;;;;;;5057177;28;20176;-74
2021/12/12 01:18:59;;;;;;;20.73;13.75;;;;;;;;;;5057202;28;20526;-70
2021/12/12 01:21:29;;;;;;;22.92;14.23;;;;;;;;;;5057136;28;20222;-71
2021/12/12 01:24:01;;;;;;;20.30;12.55;;;;;;;;;;5057150;28;20542;-73
2021/12/12 01:26:28;;;;;;;25.23;13.93;;;;;;;;;;5057022;28;20184;-71
2021/12/12 01:28:55;;;;;;;16.52;12.73;;;;;;;;;;5055689;28;20646;-69
2021/12/12 01:31:25;;;;;;;17.35;12.40;;;;;;;;;;5056948;28;20168;-67
2021/12/12 01:33:59;;;;;;;19.55;13.95;;;;;;;;;;5056956;28;20216;-67
2021/12/12 01:36:40;;;;;;;17.75;13.00;;;;;;;;;;5057092;28;20192;-68
2021/12/12 01:39:06;;;;;;;14.05;11.68;;;;;;;;;;5056756;28;20598;-67
2021/12/12 01:41:35;;;;;;;15.82;12.63;;;;;;;;;;5056819;28;20169;-69
2021/12/12 01:44:04;;;;;;;14.02;11.95;;;;;;;;;;5056755;28;20208;-68
2021/12/12 01:46:32;;;;;;;16.70;13.05;;;;;;;;;;5056656;28;20164;-68
2021/12/12 01:49:01;;;;;;;14.95;12.27;;;;;;;;;;5056531;28;20173;-69
2021/12/12 01:51:28;;;;;;;17.10;12.35;;;;;;;;;;5056452;28;20624;-66
2021/12/12 01:53:58;;;;;;;18.50;12.35;;;;;;;;;;5056527;28;20212;-67
2021/12/12 01:56:29;;;;;;;18.25;12.00;;;;;;;;;;5056497;28;20172;-67
2021/12/12 01:59:01;;;;;;;10.95;9.73;;;;;;;;;;5056314;28;20165;-67
2021/12/12 02:01:30;;;;;;;10.95;9.85;;;;;;;;;;5056307;28;20160;-67
2021/12/12 02:03:59;;;;;;;11.13;10.13;;;;;;;;;;5056244;28;20248;-67
2021/12/12 02:06:26;;;;;;;11.68;10.40;;;;;;;;;;5056201;28;20267;-68
2021/12/12 02:08:53;;;;;;;14.70;10.40;;;;;;;;;;5055979;28;20227;-74
2021/12/12 02:11:21;;;;;;;14.43;9.20;;;;;;;;;;5056305;28;20176;-75
2021/12/12 02:13:49;;;;;;;9.18;8.18;;;;;;;;;;5056061;28;20207;-74
2021/12/12 02:16:16;;;;;;;19.42;11.00;;;;;;;;;;5056146;28;20169;-76
2021/12/12 02:18:46;;;;;;;11.60;9.95;;;;;;;;;;5055903;28;20169;-76
2021/12/12 02:21:26;;;;;;;13.95;11.50;;;;;;;;;;5055992;28;20172;-76
2021/12/12 02:37:25;;;;;;;21.95;14.82;;;;;;;;;;5055800;28;20204;-71
2021/12/12 02:39:51;;;;;;;13.98;11.70;;;;;;;;;;5055644;28;20169;-78
2021/12/12 02:42:21;;;;;;;13.43;11.60;;;;;;;;;;5055658;28;20168;-76
2021/12/12 02:44:49;;;;;;;21.17;12.40;;;;;;;;;;5055538;28;20517;-73
2021/12/12 02:47:18;;;;;;;12.68;11.27;;;;;;;;;;5054271;28;20172;-76
2021/12/12 02:52:29;;;;;;;16.10;12.45;;;;;;;;;;5055735;28;20215;-74
2021/12/12 02:55:00;;;;;;;17.92;13.95;;;;;;;;;;5056099;28;20174;-66
2021/12/12 02:57:27;;;;;;;14.77;12.65;;;;;;;;;;5054323;28;20653;-67
2021/12/12 02:59:53;;;;;;;20.05;14.70;;;;;;;;;;5055825;28;20204;-67
2021/12/12 03:02:23;;;;;;;20.98;15.20;;;;;;;;;;5055524;28;20169;-66
2021/12/12 03:04:50;;;;;;;22.05;11.43;;;;;;;;;;5055363;28;20169;-67
2021/12/12 03:07:16;;;;;;;11.77;10.57;;;;;;;;;;5055219;28;20286;-67
2021/12/12 03:09:48;;;;;;;21.05;16.10;;;;;;;;;;5055001;28;20228;-67
2021/12/12 03:12:19;;;;;;;15.80;14.10;;;;;;;;;;5055272;28;20180;-67
2021/12/12 03:14:47;;;;;;;15.77;13.18;;;;;;;;;;5055019;28;20179;-67
2021/12/12 03:17:16;;;;;;;17.42;12.10;;;;;;;;;;5055021;28;20214;-66
2021/12/12 03:19:45;;;;;;;10.82;9.75;;;;;;;;;;5054881;28;20169;-67
2021/12/12 03:22:11;;;;;;;10.98;9.85;;;;;;;;;;5054865;28;20557;-68
2021/12/12 03:24:37;;;;;;;12.00;9.45;;;;;;;;;;5054824;28;20176;-67
2021/12/12 03:27:04;;;;;;;9.75;8.85;;;;;;;;;;5054757;28;20218;-67
2021/12/12 03:29:30;;;;;;;10.38;9.38;;;;;;;;;;5054653;28;20156;-67
2021/12/12 03:32:01;;;;;;;10.57;9.48;;;;;;;;;;5053956;28;20197;-66
2021/12/12 03:34:30;;;;;;;12.18;10.32;;;;;;;;;;5054554;28;20688;-66
2021/12/12 03:36:56;;;;;;;10.52;9.43;;;;;;;;;;5054583;28;20176;-66
2021/12/12 03:39:24;;;;;;;11.15;10.05;;;;;;;;;;5054553;28;20171;-66
2021/12/12 03:41:50;;;;;;;9.80;8.93;;;;;;;;;;5054431;28;20171;-66
2021/12/12 03:44:18;;;;;;;11.90;9.80;;;;;;;;;;5054410;28;20160;-66
2021/12/12 03:46:48;;;;;;;11.80;9.70;;;;;;;;;;5054319;28;20172;-67
2021/12/12 03:49:14;;;;;;;12.07;9.50;;;;;;;;;;5053105;28;20241;-66
2021/12/12 03:51:41;;;;;;;9.75;8.93;;;;;;;;;;5054265;28;20185;-66
2021/12/12 03:54:08;;;;;;;12.63;9.60;;;;;;;;;;5054181;28;20204;-66
2021/12/12 03:56:34;;;;;;;9.32;8.60;;;;;;;;;;5054253;28;20624;-67
2021/12/12 03:59:00;;;;;;;9.20;8.45;;;;;;;;;;5054217;28;20180;-66
2021/12/12 04:01:31;;;;;;;13.82;9.63;;;;;;;;;;5052839;28;20184;-66
2021/12/12 04:03:58;;;;;;;9.80;8.90;;;;;;;;;;5054118;28;20165;-66
2021/12/12 04:06:26;;;;;;;9.38;8.52;;;;;;;;;;5053897;28;20656;-66
2021/12/12 04:08:52;;;;;;;11.65;8.45;;;;;;;;;;5053819;28;20228;-67
2021/12/12 04:11:27;;;;;;;8.82;8.02;;;;;;;;;;5054037;28;20535;-66
2021/12/12 04:13:55;;;;;;;9.02;8.23;;;;;;;;;;5052559;28;20698;-67
2021/12/12 04:16:24;;;;;;;11.52;7.70;;;;;;;;;;5053859;28;20179;-66
2021/12/12 04:18:50;;;;;;;11.50;7.65;;;;;;;;;;5053879;28;20173;-67
2021/12/12 04:21:18;;;;;;;7.93;7.22;;;;;;;;;;5053692;28;20249;-66
2021/12/12 04:23:44;;;;;;;9.70;8.80;;;;;;;;;;5053715;28;20176;-66
2021/12/12 04:26:30;;;;;;;8.87;7.97;;;;;;;;;;5053728;28;20176;-66
2021/12/12 04:29:02;;;;;;;8.48;7.70;;;;;;;;;;5053562;28;20460;-66
2021/12/12 04:31:29;;;;;;;8.27;7.47;;;;;;;;;;5053639;28;20654;-66
2021/12/12 04:33:55;;;;;;;7.25;6.65;;;;;;;;;;5053583;28;20283;-66
2021/12/12 04:36:25;;;;;;;8.23;7.43;;;;;;;;;;5053519;28;20172;-66
2021/12/12 04:38:51;;;;;;;8.32;7.55;;;;;;;;;;5053567;28;20188;-66
2021/12/12 04:41:22;;;;;;;9.03;8.10;;;;;;;;;;5053605;28;20192;-66
2021/12/12 04:43:48;;;;;;;7.97;7.30;;;;;;;;;;5052483;28;20407;-66
2021/12/12 04:46:21;;;;;;;8.07;7.43;;;;;;;;;;5053446;28;20231;-66
2021/12/12 04:51:40;;;;;;;9.63;7.57;;;;;;;;;;5053609;28;20192;-66
2021/12/12 04:54:12;;;;;;;10.80;8.52;;;;;;;;;;5053246;28;20270;-67
2021/12/12 04:56:38;;;;;;;12.10;7.50;;;;;;;;;;5053362;28;20214;-66
2021/12/12 04:59:07;;;;;;;9.50;8.60;;;;;;;;;;5053339;28;20554;-66
2021/12/12 05:01:39;;;;;;;8.35;7.60;;;;;;;;;;5053287;28;20438;-66
2021/12/12 05:04:11;;;;;;;8.30;7.65;;;;;;;;;;5053250;28;20646;-65
2021/12/12 05:06:50;;;;;;;9.90;7.40;;;;;;;;;;5053278;28;20599;-66
2021/12/12 05:09:49;;;;;;;8.38;7.68;;;;;;;;;;5051790;28;20247;-66
2021/12/12 05:12:25;;;;;;;8.63;7.93;;;;;;;;;;5044688;28;20192;-66
2021/12/12 05:14:54;;;;;;;7.63;7.03;;;;;;;;;;5053211;28;20647;-67
2021/12/12 05:17:22;;;;;;;8.55;7.60;;;;;;;;;;5053175;28;20160;-66
2021/12/12 05:19:54;;;;;;;9.07;8.15;;;;;;;;;;5053058;28;20188;-67
2021/12/12 05:22:27;;;;;;;8.07;7.43;;;;;;;;;;5051899;28;20199;-67
2021/12/12 05:24:53;;;;;;;9.45;8.02;;;;;;;;;;5053061;28;20173;-66
2021/12/12 05:27:21;;;;;;;11.65;7.40;;;;;;;;;;5053115;28;20164;-66
2021/12/12 05:29:55;;;;;;;8.15;7.45;;;;;;;;;;5053033;28;20176;-66
2021/12/12 05:32:22;;;;;;;8.10;7.00;;;;;;;;;;5052968;28;20210;-66
2021/12/12 05:34:49;;;;;;;8.93;7.78;;;;;;;;;;5052869;28;20180;-66
2021/12/12 05:37:16;;;;;;;7.43;6.90;;;;;;;;;;5052977;28;20153;-67
2021/12/12 05:39:42;;;;;;;8.35;7.45;;;;;;;;;;5051679;28;20631;-70
2021/12/12 05:42:09;;;;;;;7.75;7.15;;;;;;;;;;5053071;28;20172;-67
2021/12/12 05:44:36;;;;;;;8.00;7.30;;;;;;;;;;5053060;28;20161;-73
2021/12/12 05:47:04;;;;;;;7.95;7.25;;;;;;;;;;5052964;28;20172;-75
2021/12/12 05:49:32;;;;;;;7.63;6.85;;;;;;;;;;5052847;28;20169;-74
2021/12/12 05:51:58;;;;;;;8.60;7.80;;;;;;;;;;5052903;28;20569;-74
2021/12/12 05:54:25;;;;;;;10.40;7.82;;;;;;;;;;5052493;28;20216;-74
2021/12/12 05:56:52;;;;;;;8.65;7.90;;;;;;;;;;5056579;28;20172;-66
2021/12/12 05:59:19;;;;;;;8.60;7.68;;;;;;;;;;5056521;28;20165;-68
2021/12/12 06:01:45;;;;;;;7.75;7.25;;;;;;;;;;5056504;28;20504;-67
2021/12/12 06:04:11;;;;;;;7.80;7.20;;;;;;;;;;5056500;28;20176;-67
2021/12/12 06:06:39;;;;;;;7.78;7.07;;;;;;;;;;5056574;28;20180;-67
2021/12/12 06:09:08;;;;;;;7.75;7.05;;;;;;;;;;5056139;28;20228;-67
2021/12/12 06:11:35;;;;;;;7.43;6.93;;;;;;;;;;5056243;28;20172;-69
2021/12/12 06:14:01;;;;;;;8.55;7.60;;;;;;;;;;5056096;28;20667;-67
2021/12/12 06:16:29;;;;;;;8.88;8.07;;;;;;;;;;5056192;28;20171;-67
2021/12/12 06:19:01;;;;;;;14.43;10.18;;;;;;;;;;5056129;28;20191;-67
2021/12/12 06:21:27;;;;;;;9.32;8.52;;;;;;;;;;5054678;28;20670;-69
2021/12/12 06:23:53;;;;;;;9.52;8.60;;;;;;;;;;5056039;28;20172;-67
2021/12/12 06:26:20;;;;;;;11.60;8.70;;;;;;;;;;5054730;28;20708;-69
2021/12/12 06:28:47;;;;;;;13.02;8.63;;;;;;;;;;5055934;28;20648;-69
2021/12/12 06:31:13;;;;;;;11.43;8.68;;;;;;;;;;5054628;28;20208;-66
2021/12/12 06:33:39;;;;;;;16.20;8.18;;;;;;;;;;5056014;28;20208;-68
2021/12/12 06:36:09;;;;;;;9.20;8.00;;;;;;;;;;5056001;28;20203;-70
2021/12/12 06:38:37;;;;;;;9.23;8.25;;;;;;;;;;5055758;28;20261;-67
2021/12/12 06:41:03;;;;;;;9.50;8.68;;;;;;;;;;5055641;28;20519;-67
2021/12/12 06:43:30;;;;;;;8.98;8.20;;;;;;;;;;5055547;28;20624;-66
2021/12/12 06:45:58;;;;;;;9.10;7.38;;;;;;;;;;5055759;28;20179;-70
2021/12/12 06:48:24;;;;;;;9.07;8.18;;;;;;;;;;5055536;28;20179;-66
2021/12/12 06:50:53;;;;;;;10.68;8.70;;;;;;;;;;5055432;28;20172;-70
2021/12/12 06:53:21;;;;;;;9.48;7.85;;;;;;;;;;5055413;28;20567;-67
2021/12/12 06:55:47;;;;;;;8.13;6.88;;;;;;;;;;5055410;28;20169;-70
2021/12/12 06:58:14;;;;;;;8.90;8.15;;;;;;;;;;5055410;28;20627;-70
2021/12/12 07:00:41;;;;;;;8.75;7.95;;;;;;;;;;5055284;28;20636;-67
2021/12/12 07:03:07;;;;;;;12.68;8.23;;;;;;;;;;5055243;28;20214;-67
2021/12/12 07:05:34;;;;;;;9.15;8.23;;;;;;;;;;5054440;28;20186;-68
2021/12/12 07:08:03;;;;;;;8.30;7.57;;;;;;;;;;5054763;28;20294;-66
2021/12/12 07:10:30;;;;;;;10.60;8.95;;;;;;;;;;5055256;28;20230;-67
2021/12/12 07:12:56;;;;;;;9.50;8.68;;;;;;;;;;5054999;28;20236;-66
2021/12/12 07:15:42;;;;;;;9.85;8.38;;;;;;;;;;5053748;28;20184;-68
2021/12/12 07:18:12;;;;;;;9.63;8.73;;;;;;;;;;5053668;28;20179;-66
2021/12/12 07:20:38;;;;;;;10.63;9.57;;;;;;;;;;5054850;28;20173;-67
2021/12/12 07:23:08;;;;;;;12.32;9.38;;;;;;;;;;5054810;28;20211;-67
2021/12/12 07:25:35;;;;;;;9.88;8.93;;;;;;;;;;5054784;28;20255;-71
2021/12/12 07:28:01;;;;;;;9.32;8.60;;;;;;;;;;5054817;28;20173;-67
2021/12/12 07:30:27;;;;;;;8.77;7.88;;;;;;;;;;5053461;28;20271;-68
2021/12/12 07:32:53;;;;;;;11.38;8.80;;;;;;;;;;5053313;28;20208;-67
2021/12/12 07:35:19;;;;;;;28.77;21.55;;;;;;;;;;5054606;28;20183;-66
2021/12/12 07:37:46;;;;;;;24.30;17.63;;;;;;;;;;5054520;28;20204;-70
2021/12/12 07:40:12;;;;;;;12.18;9.55;;;;;;;;;;5054579;28;20192;-69
2021/12/12 07:42:38;;;;;;;16.38;10.88;;;;;;;;;;5054511;28;20164;-70
2021/12/12 07:45:06;;;;;;;12.68;11.25;;;;;;;;;;5054425;28;20505;-69
2021/12/12 07:47:32;;;;;;;15.00;12.75;;;;;;;;;;5054634;28;20596;-69
2021/12/12 07:49:58;;;;;;;17.67;13.27;;;;;;;;;;5054262;28;20176;-68
2021/12/12 07:52:26;;;;;;;15.95;12.18;;;;;;;;;;5054403;28;20539;-66
2021/12/12 07:54:52;;;;;;;18.25;13.00;;;;;;;;;;5054183;28;20631;-69
2021/12/12 07:57:19;;;;;;;18.67;13.25;;;;;;;;;;5054162;28;20575;-69
2021/12/12 07:59:45;;;;;;;18.98;13.00;;;;;;;;;;5054150;28;20164;-70
2021/12/12 08:02:12;;;;;;;16.25;13.35;;;;;;;;;;5054085;28;20192;-69
2021/12/12 08:04:39;;;;;;;16.10;13.05;;;;;;;;;;5054045;28;20164;-66
2021/12/12 08:07:08;;;;;;;24.63;15.80;;;;;;;;;;5052672;28;20220;-66
2021/12/12 08:09:34;;;;;;;19.75;15.13;;;;;;;;;;5053847;28;20234;-68
2021/12/12 08:12:00;;;;;;;21.35;14.68;;;;;;;;;;5053935;28;20218;-72
2021/12/12 08:14:28;;;;;;;26.02;15.45;;;;;;;;;;5053736;28;20215;-67
2021/12/12 08:16:54;;;;;;;22.08;15.35;;;;;;;;;;5053684;28;20627;-67
2021/12/12 08:19:22;;;;;;;21.52;15.45;;;;;;;;;;5053823;28;20230;-66
2021/12/12 08:21:48;;;;;;;49.70;24.65;;;;;;;;;;5053761;28;20658;-66
2021/12/12 08:24:16;;;;;;;27.33;20.58;;;;;;;;;;5053648;28;20199;-65
2021/12/12 08:26:43;;;;;;;24.58;19.40;;;;;;;;;;5053660;28;20177;-64
2021/12/12 08:29:10;;;;;;;24.58;18.92;;;;;;;;;;5053733;28;20164;-65
2021/12/12 08:31:36;;;;;;;27.55;20.02;;;;;;;;;;5053842;28;20592;-66
2021/12/12 08:34:04;;;;;;;36.15;27.23;;;;;;;;;;5052192;28;20276;-66
2021/12/12 08:36:32;;;;;;;22.60;17.92;;;;;;;;;;5053515;28;20695;-66
2021/12/12 08:38:58;;;;;;;16.55;14.38;;;;;;;;;;5053525;28;20165;-67
2021/12/12 08:41:24;;;;;;;16.15;11.77;;;;;;;;;;5053484;28;20187;-66
2021/12/12 08:43:51;;;;;;;14.02;12.65;;;;;;;;;;5053392;28;20190;-71
2021/12/12 08:46:17;;;;;;;13.50;12.02;;;;;;;;;;5053680;28;20532;-67
2021/12/12 08:48:45;;;;;;;19.92;13.98;;;;;;;;;;5053410;28;20165;-66
2021/12/12 08:51:13;;;;;;;13.68;12.30;;;;;;;;;;5052052;28;20211;-67
2021/12/12 08:53:40;;;;;;;17.58;14.38;;;;;;;;;;5053191;28;20266;-67
2021/12/12 08:56:08;;;;;;;19.88;15.80;;;;;;;;;;5053557;28;20218;-66
2021/12/12 08:58:34;;;;;;;20.65;14.40;;;;;;;;;;5053590;28;20172;-65
2021/12/12 09:01:00;;;;;;;16.50;13.43;;;;;;;;;;5053276;28;20164;-64
2021/12/12 09:03:26;;;;;;;17.77;14.80;;;;;;;;;;5053274;28;20540;-64
2021/12/12 09:05:52;;;;;;;19.43;14.60;;;;;;;;;;5053293;28;20392;-70
2021/12/12 09:08:24;;;;;;;15.65;13.35;;;;;;;;;;5053111;28;20498;-71
2021/12/12 09:10:59;;;;;;;14.13;11.95;;;;;;;;;;5053279;28;20200;-67
2021/12/12 09:13:33;;;;;;;8.77;7.93;;;;;;;;;;5053036;28;20198;-64
2021/12/12 09:16:01;;;;;;;10.30;9.25;;;;;;;;;;5053124;28;20176;-64
2021/12/12 09:18:46;;;;;;;10.65;9.10;;;;;;;;;;5051717;28;20176;-66
2021/12/12 09:21:15;;;;;;;11.40;10.18;;;;;;;;;;5052997;28;20297;-66
2021/12/12 09:23:45;;;;;;;14.77;10.65;;;;;;;;;;5053067;28;20172;-65
2021/12/12 09:26:18;;;;;;;10.68;9.88;;;;;;;;;;5053008;28;20627;-66
2021/12/12 09:29:22;;;;;;;11.27;9.65;;;;;;;;;;5052975;28;20652;-66
2021/12/12 09:32:11;;;;;;;19.10;12.93;;;;;;;;;;5034617;28;20180;-65
2021/12/12 09:34:37;;;;;;;12.93;11.30;;;;;;;;;;5024700;28;20212;-65
2021/12/12 09:37:08;;;;;;;11.37;10.30;;;;;;;;;;5048696;28;20542;-69
2021/12/12 09:39:37;;;;;;;11.93;10.77;;;;;;;;;;5056838;28;20819;-71
2021/12/12 09:42:04;;;;;;;11.95;10.60;;;;;;;;;;5056849;28;20180;-70
2021/12/12 09:44:51;;;;;;;23.40;17.00;;;;;;;;;;5056737;28;20255;-72
2021/12/12 09:47:56;;;;;;;22.23;18.60;;;;;;;;;;5056697;28;20210;-73
2021/12/12 09:53:28;;;;;;;18.60;15.63;;;;;;;;;;5056635;28;20223;-70
2021/12/12 09:55:58;;;;;;;11.98;9.88;;;;;;;;;;5056531;28;20632;-70
2021/12/12 09:58:30;;;;;;;18.50;10.05;;;;;;;;;;5056462;28;20299;-65
2021/12/12 10:01:01;;;;;;;10.88;9.85;;;;;;;;;;5056360;28;20593;-67
2021/12/12 10:03:33;;;;;;;9.95;9.15;;;;;;;;;;5056383;28;20168;-68
2021/12/12 10:06:15;;;;;;;14.35;10.40;;;;;;;;;;5056505;28;20176;-69
2021/12/12 10:08:42;;;;;;;10.60;9.00;;;;;;;;;;5056182;28;20228;-69
2021/12/12 10:11:31;;;;;;;9.07;8.30;;;;;;;;;;5056912;28;20156;-66
2021/12/12 10:13:57;;;;;;;10.40;9.00;;;;;;;;;;5053491;28;20277;-65
2021/12/12 10:16:23;;;;;;;8.60;7.90;;;;;;;;;;5056484;28;20644;-65
2021/12/12 10:19:00;;;;;;;8.90;8.00;;;;;;;;;;5055150;28;20189;-65
2021/12/12 10:21:31;;;;;;;11.15;8.40;;;;;;;;;;5056401;28;20539;-66
2021/12/12 10:24:16;;;;;;;8.40;7.60;;;;;;;;;;5056206;28;20198;-66
2021/12/12 10:26:44;;;;;;;13.07;8.20;;;;;;;;;;5055988;28;20172;-66
2021/12/12 10:29:10;;;;;;;9.02;8.20;;;;;;;;;;5055896;28;20218;-66
2021/12/12 10:31:35;;;;;;;8.80;7.90;;;;;;;;;;5055790;28;20255;-67
2021/12/12 10:34:08;;;;;;;10.30;8.80;;;;;;;;;;5055804;28;20448;-68
2021/12/12 10:36:40;;;;;;;9.50;8.60;;;;;;;;;;5055687;28;20755;-69
2021/12/12 10:39:21;;;;;;;8.80;8.00;;;;;;;;;;5055704;28;20295;-67
2021/12/12 10:41:49;;;;;;;8.45;7.95;;;;;;;;;;5055814;28;20273;-68
2021/12/12 10:44:17;;;;;;;9.48;8.68;;;;;;;;;;5055575;28;20164;-65
2021/12/12 10:46:52;;;;;;;9.30;8.55;;;;;;;;;;5055616;28;20266;-67
2021/12/12 10:49:25;;;;;;;9.23;8.38;;;;;;;;;;5055506;28;20164;-64
2021/12/12 10:52:11;;;;;;;9.88;8.52;;;;;;;;;;5055394;28;20188;-65
2021/12/12 10:54:48;;;;;;;9.73;8.80;;;;;;;;;;5053941;28;20262;-67
2021/12/12 10:57:16;;;;;;;9.30;8.35;;;;;;;;;;5054096;28;20180;-68
2021/12/12 10:59:42;;;;;;;9.85;8.85;;;;;;;;;;5055585;28;20237;-65
2021/12/12 11:02:10;;;;;;;10.03;8.93;;;;;;;;;;5055294;28;20620;-64
2021/12/12 11:04:55;;;;;;;8.80;8.10;;;;;;;;;;5055310;28;20476;-64
2021/12/12 11:07:24;;;;;;;9.80;8.77;;;;;;;;;;5055180;28;20172;-65
2021/12/12 11:09:53;;;;;;;10.57;9.25;;;;;;;;;;5055008;28;20311;-64
2021/12/12 11:12:29;;;;;;;9.03;8.23;;;;;;;;;;5055051;28;20535;-64
2021/12/12 11:15:03;;;;;;;8.10;7.17;;;;;;;;;;5055021;28;20392;-63
2021/12/12 11:17:30;;;;;;;10.10;7.68;;;;;;;;;;5054947;28;20415;-62
2021/12/12 11:19:56;;;;;;;8.37;7.77;;;;;;;;;;5054910;28;20233;-62
2021/12/12 11:22:28;;;;;;;8.00;7.40;;;;;;;;;;5054885;28;20395;-64
2021/12/12 11:25:10;;;;;;;7.90;7.20;;;;;;;;;;5054827;28;20203;-63
2021/12/12 11:27:39;;;;;;;21.67;17.27;;;;;;;;;;5055028;28;20403;-63
2021/12/12 11:30:09;;;;;;;6.80;6.45;;;;;;;;;;5054754;28;20180;-62
2021/12/12 11:32:35;;;;;;;10.77;8.30;;;;;;;;;;5054632;28;20204;-63
2021/12/12 11:35:03;;;;;;;7.77;6.97;;;;;;;;;;5054606;28;20870;-65
2021/12/12 11:37:29;;;;;;;9.60;8.60;;;;;;;;;;5054622;28;20403;-63
2021/12/12 11:40:14;;;;;;;7.67;6.97;;;;;;;;;;5054602;28;20520;-63
2021/12/12 11:42:40;;;;;;;6.67;6.27;;;;;;;;;;5054436;28;20361;-64
2021/12/12 11:45:11;;;;;;;9.27;8.40;;;;;;;;;;5054471;28;20411;-65
2021/12/12 11:47:40;;;;;;;9.13;8.23;;;;;;;;;;5054365;28;20398;-63
2021/12/12 11:50:21;;;;;;;11.90;10.60;;;;;;;;;;5054547;28;20419;-63
2021/12/12 11:52:53;;;;;;;9.10;8.30;;;;;;;;;;5053732;28;20460;-64
2021/12/12 11:55:22;;;;;;;11.57;9.30;;;;;;;;;;5054302;28;20403;-65
2021/12/12 11:58:00;;;;;;;7.60;6.90;;;;;;;;;;5054143;28;20871;-66
2021/12/12 12:00:29;;;;;;;6.10;5.70;;;;;;;;;;5054172;28;20934;-67
2021/12/12 12:03:06;;;;;;;6.60;6.10;;;;;;;;;;5054135;28;20402;-66
2021/12/12 12:05:36;;;;;;;5.60;5.23;;;;;;;;;;5054023;28;20518;-67
2021/12/12 12:08:23;;;;;;;7.27;6.77;;;;;;;;;;5053839;28;20401;-67
2021/12/12 12:11:04;;;;;;;5.70;5.23;;;;;;;;;;5054084;28;20390;-65
2021/12/12 12:13:42;;;;;;;7.03;6.43;;;;;;;;;;5053888;28;20465;-67
2021/12/12 12:16:35;;;;;;;7.83;7.17;;;;;;;;;;5053868;28;20399;-67
2021/12/12 12:19:01;;;;;;;7.33;6.63;;;;;;;;;;5053824;28;20406;-66
2021/12/12 12:21:30;;;;;;;6.00;5.70;;;;;;;;;;5053754;28;20407;-65
2021/12/12 12:24:17;;;;;;;5.37;5.07;;;;;;;;;;5054082;28;20411;-66
2021/12/12 12:26:52;;;;;;;6.00;5.40;;;;;;;;;;5053764;28;20501;-67
2021/12/12 12:29:33;;;;;;;6.43;6.03;;;;;;;;;;5053727;28;20426;-65
2021/12/12 12:32:05;;;;;;;5.50;5.03;;;;;;;;;;5053657;28;20403;-66
2021/12/12 12:35:00;;;;;;;5.10;4.80;;;;;;;;;;5053582;28;20473;-68
2021/12/12 12:37:44;;;;;;;5.87;5.47;;;;;;;;;;5052140;28;20407;-68
2021/12/12 12:40:10;;;;;;;6.00;5.50;;;;;;;;;;5053559;28;20906;-66
2021/12/12 12:42:55;;;;;;;4.77;4.57;;;;;;;;;;5053256;28;20524;-67
2021/12/12 12:45:40;;;;;;;4.63;4.33;;;;;;;;;;5053557;28;20407;-67
2021/12/12 12:48:24;;;;;;;5.00;4.73;;;;;;;;;;5053498;28;20411;-68
2021/12/12 12:51:09;;;;;;;6.07;5.40;;;;;;;;;;5053407;28;20469;-68
2021/12/12 12:53:40;;;;;;;6.30;5.20;;;;;;;;;;5053350;28;20466;-69
2021/12/12 12:56:25;;;;;;;4.53;4.23;;;;;;;;;;5053199;28;20403;-67
2021/12/12 12:58:51;;;;;;;4.70;4.40;;;;;;;;;;5052041;28;20407;-68
2021/12/12 13:01:21;;;;;;;3.70;3.60;;;;;;;;;;5053392;28;20473;-70
2021/12/12 13:04:02;;;;;;;6.17;4.70;;;;;;;;;;5053287;28;20403;-69
2021/12/12 13:06:54;;;;;;;6.53;6.03;;;;;;;;;;5057408;28;20414;-69
2021/12/12 13:09:35;;;;;;;6.30;5.70;;;;;;;;;;5048837;28;20462;-68
2021/12/12 13:12:01;;;;;;;22.67;12.60;;;;;;;;;;5057402;28;20439;-69
2021/12/12 13:15:06;;;;;;;5.13;4.80;;;;;;;;;;5057236;28;20498;-69
2021/12/12 13:17:44;;;;;;;7.73;5.23;;;;;;;;;;5035176;28;20419;-68
2021/12/12 13:20:16;;;;;;;5.17;4.90;;;;;;;;;;5035168;28;20422;-68
2021/12/12 13:22:44;;;;;;;5.00;4.80;;;;;;;;;;5048293;28;20429;-68
2021/12/12 13:25:12;;;;;;;5.40;5.10;;;;;;;;;;5057156;28;20437;-68
2021/12/12 13:28:16;;;;;;;5.73;5.37;;;;;;;;;;5055791;28;20858;-69
2021/12/12 13:30:48;;;;;;;9.87;8.50;;;;;;;;;;5056957;28;20905;-68
2021/12/12 13:33:24;;;;;;;9.70;8.00;;;;;;;;;;5057156;28;20502;-68
2021/12/12 13:36:02;;;;;;;7.80;7.20;;;;;;;;;;5056909;28;20413;-66
2021/12/12 13:38:28;;;;;;;4.90;4.60;;;;;;;;;;5056800;28;20405;-68
2021/12/12 13:41:10;;;;;;;4.07;3.87;;;;;;;;;;5056786;28;20411;-68
2021/12/12 13:43:36;;;;;;;5.77;5.40;;;;;;;;;;5055533;28;20846;-67
2021/12/12 13:46:05;;;;;;;11.80;7.80;;;;;;;;;;5056673;28;20407;-66
2021/12/12 13:48:49;;;;;;;5.13;4.83;;;;;;;;;;5056652;28;20411;-67
2021/12/12 13:51:41;;;;;;;5.23;4.93;;;;;;;;;;5056508;28;20422;-66
2021/12/12 13:54:27;;;;;;;4.40;4.20;;;;;;;;;;5055296;28;20995;-66
2021/12/12 13:57:11;;;;;;;5.07;4.67;;;;;;;;;;5056191;28;20902;-66
2021/12/12 13:59:44;;;;;;;4.17;4.03;;;;;;;;;;5056379;28;20406;-66
2021/12/12 14:02:12;;;;;;;5.70;5.30;;;;;;;;;;5056291;28;20434;-67
2021/12/12 14:04:57;;;;;;;10.13;8.43;;;;;;;;;;5056222;28;20957;-68
2021/12/12 14:07:41;;;;;;;5.23;4.80;;;;;;;;;;5056125;28;20439;-67
2021/12/12 14:10:14;;;;;;;11.30;6.13;;;;;;;;;;5056141;28;20465;-65
2021/12/12 14:12:41;;;;;;;8.20;7.37;;;;;;;;;;5056151;28;20454;-65
2021/12/12 14:15:15;;;;;;;8.33;6.43;;;;;;;;;;5055714;28;20506;-65
2021/12/12 14:17:49;;;;;;;3.23;3.13;;;;;;;;;;5056169;28;20399;-67
2021/12/12 14:20:35;;;;;;;4.00;3.87;;;;;;;;;;5056041;28;20415;-65
2021/12/12 14:23:02;;;;;;;3.90;3.80;;;;;;;;;;5055900;28;20418;-67
2021/12/12 14:25:29;;;;;;;3.87;3.77;;;;;;;;;;5054840;28;20441;-66
2021/12/12 14:27:56;;;;;;;3.60;3.40;;;;;;;;;;5055944;28;20414;-66
2021/12/12 14:30:23;;;;;;;2.87;2.87;;;;;;;;;;5055959;28;20414;-68
2021/12/12 14:32:56;;;;;;;3.93;3.73;;;;;;;;;;5055847;28;20478;-67
2021/12/12 14:35:23;;;;;;;4.07;3.83;;;;;;;;;;5055862;28;20484;-67
2021/12/12 14:37:52;;;;;;;3.53;3.30;;;;;;;;;;5055816;28;20404;-67
2021/12/12 14:40:29;;;;;;;3.53;3.43;;;;;;;;;;5055822;28;20454;-66
2021/12/12 14:42:55;;;;;;;3.80;3.70;;;;;;;;;;5055703;28;20441;-66
2021/12/12 14:45:24;;;;;;;4.27;4.17;;;;;;;;;;5055711;28;20411;-66
2021/12/12 14:47:55;;;;;;;5.00;4.80;;;;;;;;;;5055620;28;20831;-66
2021/12/12 14:50:23;;;;;;;5.07;4.87;;;;;;;;;;5055508;28;20411;-66
2021/12/12 14:52:54;;;;;;;4.60;4.30;;;;;;;;;;5055366;28;20455;-66
2021/12/12 14:55:22;;;;;;;4.97;4.77;;;;;;;;;;5055484;28;20929;-66
2021/12/12 14:57:50;;;;;;;5.40;4.50;;;;;;;;;;5055350;28;20399;-66
2021/12/12 15:00:16;;;;;;;4.50;4.30;;;;;;;;;;5055339;28;20407;-66
2021/12/12 15:02:48;;;;;;;6.70;6.20;;;;;;;;;;5054017;28;20489;-66
2021/12/12 15:05:20;;;;;;;5.57;5.20;;;;;;;;;;5055299;28;20865;-66
2021/12/12 15:07:47;;;;;;;5.50;5.10;;;;;;;;;;5055255;28;20403;-66
2021/12/12 15:10:13;;;;;;;6.00;5.43;;;;;;;;;;5055031;28;20458;-66
2021/12/12 15:12:45;;;;;;;5.20;5.00;;;;;;;;;;5055073;28;20890;-66
2021/12/12 15:15:16;;;;;;;5.60;5.30;;;;;;;;;;5055097;28;20780;-66